Rumsey, California
Current Conditions -  °F | °C
As of 6:53 AM on Wednesday 22 Oct 2014 (Local Time) from KSMF Reporting Station
Broken Clouds Broken Clouds  
Wind Chill: 48°   Ceiling: 20000
Heat Index: 48°   Visibility: 10mi
Dew Point: 41°   Wind: 3mph
Humidity: 77%   Direction: 270°W
Pressure: 30.02"   Gusts: NA
Location:  38.89°N, 122.24°W
Report Text: KSMF 221353Z 27003KT 10SM BKN200 BKN250 09/05 A3002 RMK AO2 SLP166 T00890050
Loading
Personal Weather Stations






























Interactive Weather Map
Tropical Storm Tracking
New forecast layout! Learn more

10-Day Weather Forecast

Advertisements
Track Severe Weather on mobile